Time;durP1;ratioP1;P1;durP2;ratioP2;P2;SDS_P1;SDS_P2;PMS_P1;PMS_P2;Temp;Humidity;BMP_temperature;BMP_pressure;BME280_temperature;BME280_humidity;BME280_pressure;Samples;Min_cycle;Max_cycle;Signal;HPM_P1;HPM_P2
2022/12/10 00:01:39;;;;;;;19.20;10.38;;;;;;;10.23;59.74;98112.84;4383540;32;20109;-90
2022/12/10 00:04:04;;;;;;;21.98;9.85;;;;;;;10.37;59.75;98106.81;4405779;32;20105;-91
2022/12/10 00:06:32;;;;;;;19.45;9.40;;;;;;;10.45;59.76;98099.44;4408820;32;20126;-90
2022/12/10 00:08:58;;;;;;;19.20;9.35;;;;;;;10.59;59.76;98102.06;4389431;32;20170;-90
2022/12/10 00:11:24;;;;;;;16.75;8.77;;;;;;;10.23;59.74;98106.78;4419388;32;20145;-90
2022/12/10 00:13:50;;;;;;;14.73;7.75;;;;;;;10.29;59.74;98107.28;4402488;32;20386;-91
2022/12/10 00:16:16;;;;;;;14.77;8.88;;;;;;;10.30;59.75;98113.31;4396167;32;20106;-90
2022/12/10 00:18:41;;;;;;;18.80;7.93;;;;;;;10.34;59.75;98125.22;4389415;32;20454;-90
2022/12/10 00:21:12;;;;;;;14.87;7.57;;;;;;;10.27;59.74;98122.12;4378425;32;20105;-90
2022/12/10 00:23:37;;;;;;;16.50;6.75;;;;;;;10.46;59.75;98132.34;4413318;32;20181;-90
2022/12/10 00:26:08;;;;;;;12.00;6.87;;;;;;;10.24;59.75;98132.72;4412267;32;20163;-90
2022/12/10 00:28:33;;;;;;;15.65;7.85;;;;;;;10.17;59.75;98133.94;4380703;32;20106;-90
2022/12/10 00:31:06;;;;;;;20.27;10.45;;;;;;;10.25;59.75;98142.19;4395300;32;20478;-93
2022/12/10 00:33:32;;;;;;;26.83;13.20;;;;;;;10.37;59.75;98138.88;4401487;32;20211;-92
2022/12/10 00:36:04;;;;;;;30.58;13.45;;;;;;;10.42;59.76;98141.25;4385104;32;20098;-90
2022/12/10 00:38:30;;;;;;;24.67;13.70;;;;;;;10.35;59.75;98145.09;4391449;32;20100;-89
2022/12/10 00:40:55;;;;;;;25.12;12.57;;;;;;;10.35;59.75;98147.69;4405146;32;20125;-90
2022/12/10 00:43:20;;;;;;;21.87;11.05;;;;;;;10.29;59.75;98135.88;4409745;32;20127;-88
2022/12/10 00:45:46;;;;;;;20.73;10.45;;;;;;;10.18;59.74;98135.63;4401452;32;20090;-90
2022/12/10 00:48:11;;;;;;;22.58;11.20;;;;;;;10.22;59.74;98142.38;4404182;32;20138;-90
2022/12/10 00:50:37;;;;;;;21.52;10.85;;;;;;;10.20;59.74;98148.53;4402446;32;20129;-90
2022/12/10 00:53:04;;;;;;;20.48;10.63;;;;;;;10.23;59.74;98138.84;4412761;32;20106;-91
2022/12/10 00:55:30;;;;;;;18.90;10.98;;;;;;;10.15;59.73;98149.63;4397372;32;20116;-91
2022/12/10 00:57:55;;;;;;;20.15;10.40;;;;;;;10.28;59.75;98149.81;4397414;32;20134;-91
2022/12/10 01:00:21;;;;;;;19.70;10.70;;;;;;;10.20;59.74;98167.59;4408122;32;20147;-91
2022/12/10 01:02:46;;;;;;;19.70;10.93;;;;;;;10.24;59.74;98155.28;4378710;32;20106;-90
2022/12/10 01:05:12;;;;;;;18.67;10.55;;;;;;;10.29;59.75;98159.28;4387559;32;20142;-91
2022/12/10 01:07:37;;;;;;;18.65;10.38;;;;;;;10.31;59.75;98162.63;4397760;32;20216;-91
2022/12/10 01:10:03;;;;;;;19.23;10.27;;;;;;;10.34;59.75;98166.81;4400689;32;20731;-90
2022/12/10 01:12:28;;;;;;;17.12;10.07;;;;;;;10.24;59.74;98168.28;4399965;32;20465;-91
2022/12/10 01:14:54;;;;;;;17.87;9.52;;;;;;;10.25;59.75;98167.34;4399665;32;20094;-90
2022/12/10 01:17:21;;;;;;;16.17;9.23;;;;;;;10.19;59.75;98176.31;4412781;32;20328;-91
2022/12/10 01:19:46;;;;;;;16.20;8.30;;;;;;;10.27;59.74;98173.31;4387596;32;20231;-91
2022/12/10 01:22:12;;;;;;;17.10;9.13;;;;;;;10.22;59.74;98176.16;4403680;32;20457;-91
2022/12/10 01:24:37;;;;;;;14.00;8.50;;;;;;;10.34;59.75;98179.81;4397277;32;20142;-91
2022/12/10 01:27:03;;;;;;;15.32;8.35;;;;;;;10.34;59.75;98169.44;4387561;32;20093;-91
2022/12/10 01:29:28;;;;;;;18.52;9.40;;;;;;;10.49;59.76;98172.94;4408001;32;20200;-91
2022/12/10 01:31:56;;;;;;;15.85;8.80;;;;;;;10.47;59.76;98191.25;4397432;32;20488;-91
2022/12/10 01:34:21;;;;;;;17.23;10.20;;;;;;;10.32;59.75;98176.47;4391309;32;20120;-91
2022/12/10 01:36:49;;;;;;;15.07;8.25;;;;;;;10.34;59.75;98178.06;4379453;32;20486;-91
2022/12/10 01:39:15;;;;;;;16.60;8.93;;;;;;;10.42;59.76;98173.28;4397349;32;20164;-91
2022/12/10 01:41:44;;;;;;;16.98;8.63;;;;;;;10.45;59.75;98174.88;4409007;32;20814;-91
2022/12/10 01:44:09;;;;;;;16.27;8.50;;;;;;;10.61;59.76;98174.81;4398816;32;20474;-91
2022/12/10 01:46:39;;;;;;;15.88;9.20;;;;;;;10.54;59.75;98174.34;4414620;32;20097;-91
2022/12/10 01:49:09;;;;;;;;;;;;;;;10.45;59.76;98180.91;4400197;32;20077;-90
2022/12/10 01:51:35;;;;;;;;;;;;;;;10.53;59.76;98183.06;4400521;32;20012;-91
2022/12/10 01:54:01;;;;;;;11.77;7.72;;;;;;;10.43;59.75;98187.97;4397202;32;20702;-91
2022/12/10 01:56:26;;;;;;;11.25;6.70;;;;;;;10.54;59.76;98189.97;4400798;32;20123;-91
2022/12/10 01:58:54;;;;;;;13.25;7.22;;;;;;;10.64;59.77;98200.66;4397011;32;20147;-91
2022/12/10 02:01:23;;;;;;;13.05;7.18;;;;;;;10.43;59.75;98202.75;4390037;32;20092;-91
2022/12/10 02:04:16;;;;;;;11.23;6.93;;;;;;;10.38;59.75;98196.94;4433051;32;20163;-91
2022/12/10 02:07:02;;;;;;;12.37;6.95;;;;;;;10.34;59.75;98198.03;4384602;32;20120;-90
2022/12/10 02:09:47;;;;;;;8.80;5.22;;;;;;;10.29;59.74;98208.69;4402806;32;20114;-90
2022/12/10 02:12:23;;;;;;;10.65;5.60;;;;;;;10.04;59.73;98211.78;4384987;32;20160;-90
2022/12/10 02:15:10;;;;;;;7.87;5.57;;;;;;;9.91;59.73;98215.94;4397348;32;20447;-90
2022/12/10 02:17:38;;;;;;;10.18;5.28;;;;;;;9.82;59.72;98226.84;4398585;32;20091;-90
2022/12/10 02:20:16;;;;;;;8.77;4.95;;;;;;;9.83;59.72;98223.31;4397104;32;20106;-91
2022/12/10 02:22:45;;;;;;;8.70;5.40;;;;;;;9.67;59.71;98223.28;4397282;32;20113;-91
2022/12/10 02:25:11;;;;;;;7.65;5.15;;;;;;;9.65;59.72;98225.13;4399712;32;20792;-90
2022/12/10 02:27:46;;;;;;;8.40;5.00;;;;;;;9.71;59.71;98217.03;4399748;32;20174;-91
2022/12/10 02:30:11;;;;;;;8.23;4.90;;;;;;;9.67;59.71;98218.09;4412565;32;20140;-90
2022/12/10 02:32:40;;;;;;;9.98;4.68;;;;;;;9.64;59.71;98228.66;4384554;32;20098;-91
2022/12/10 02:35:10;;;;;;;7.18;4.43;;;;;;;9.41;59.70;98227.25;4388386;32;20512;-91
2022/12/10 02:37:40;;;;;;;9.65;5.35;;;;;;;9.39;59.69;98223.03;4399851;32;20156;-92
2022/12/10 02:40:11;;;;;;;9.98;5.60;;;;;;;9.38;59.70;98211.81;4387415;32;20102;-91
2022/12/10 02:42:37;;;;;;;12.57;5.62;;;;;;;9.29;59.70;98208.88;4396250;32;20066;-90
2022/12/10 02:45:03;;;;;;;9.48;5.65;;;;;;;9.17;59.69;98208.56;4395001;32;20106;-91
2022/12/10 02:47:29;;;;;;;9.45;5.53;;;;;;;8.93;59.67;98196.81;4390990;32;20133;-88
2022/12/10 02:49:56;;;;;;;9.73;5.70;;;;;;;8.83;59.67;98206.84;4399330;32;20184;-91
2022/12/10 02:52:22;;;;;;;10.57;5.57;;;;;;;8.91;59.68;98209.03;4377329;32;20078;-90
2022/12/10 02:54:48;;;;;;;9.77;6.10;;;;;;;8.77;59.67;98212.34;4377505;32;20063;-90
2022/12/10 02:57:23;;;;;;;10.07;5.70;;;;;;;8.79;59.66;98223.47;4383013;32;20148;-91
2022/12/10 03:00:06;;;;;;;9.70;5.60;;;;;;;8.97;59.67;98218.25;4390993;32;20111;-91
2022/12/10 03:02:38;;;;;;;10.13;6.20;;;;;;;9.01;59.68;98227.59;4409511;32;20168;-91
2022/12/10 03:05:11;;;;;;;10.70;5.72;;;;;;;8.90;59.67;98220.34;4382011;32;20124;-91
2022/12/10 03:07:40;;;;;;;9.73;5.75;;;;;;;8.97;59.68;98226.88;4388877;32;20120;-90
2022/12/10 03:10:41;;;;;;;11.15;6.22;;;;;;;8.92;59.67;98234.91;4416392;32;20097;-90
2022/12/10 03:13:08;;;;;;;7.28;5.10;;;;;;;8.79;59.67;98240.78;4416736;32;20186;-90
2022/12/10 03:15:34;;;;;;;9.07;5.20;;;;;;;8.82;59.67;98244.06;4407327;32;20090;-91
2022/12/10 03:18:02;;;;;;;8.75;5.15;;;;;;;8.84;59.67;98247.44;4399487;32;20124;-90
2022/12/10 03:20:27;;;;;;;9.60;4.87;;;;;;;8.85;59.67;98249.09;4376354;32;21028;-89
2022/12/10 03:22:52;;;;;;;6.68;4.60;;;;;;;8.82;59.67;98248.41;4381087;32;20126;-91
2022/12/10 03:25:21;;;;;;;8.55;4.50;;;;;;;8.58;59.65;98251.28;4390344;32;20431;-90
2022/12/10 03:27:49;;;;;;;6.35;3.47;;;;;;;8.63;59.65;98251.06;4410414;32;20105;-91
2022/12/10 03:30:15;;;;;;;6.25;3.60;;;;;;;8.58;59.65;98247.84;4396889;32;20117;-91
2022/12/10 03:32:40;;;;;;;6.22;3.92;;;;;;;8.55;59.65;98253.19;4394282;32;20434;-90
2022/12/10 03:35:06;;;;;;;5.57;3.20;;;;;;;8.58;59.65;98245.25;4387098;32;20435;-92
2022/12/10 03:37:32;;;;;;;6.68;3.83;;;;;;;8.51;59.64;98243.84;4394167;32;20090;-92
2022/12/10 03:39:58;;;;;;;4.55;3.03;;;;;;;8.33;59.64;98242.97;4389205;32;20490;-90
2022/12/10 03:42:23;;;;;;;7.18;3.90;;;;;;;8.11;59.63;98240.53;4399413;32;20453;-91
2022/12/10 03:44:52;;;;;;;7.28;3.78;;;;;;;8.14;59.64;98250.75;4398872;32;20516;-91
2022/12/10 03:47:17;;;;;;;7.00;3.85;;;;;;;8.11;59.62;98257.81;4386534;32;20100;-90
2022/12/10 03:49:43;;;;;;;7.12;4.40;;;;;;;8.04;59.62;98265.00;4399024;32;20130;-90
2022/12/10 03:52:09;;;;;;;11.35;5.78;;;;;;;8.05;59.62;98260.69;4375312;32;20505;-91
2022/12/10 03:54:34;;;;;;;9.48;4.68;;;;;;;8.24;59.63;98251.16;4395853;32;20102;-91
2022/12/10 03:57:00;;;;;;;9.20;4.57;;;;;;;8.37;59.65;98262.66;4406829;32;20169;-89
2022/12/10 03:59:25;;;;;;;8.82;4.85;;;;;;;8.27;59.64;98264.81;4388074;32;20136;-91
2022/12/10 04:01:51;;;;;;;9.45;4.80;;;;;;;8.41;59.65;98273.72;4406767;32;20171;-91
2022/12/10 04:04:16;;;;;;;9.27;4.95;;;;;;;8.23;59.64;98276.22;4388758;32;20120;-91
2022/12/10 04:06:42;;;;;;;9.98;4.65;;;;;;;8.31;59.64;98287.09;4386114;32;20122;-91
2022/12/10 04:09:12;;;;;;;9.10;4.97;;;;;;;8.42;59.65;98283.19;4399654;32;20151;-91
2022/12/10 04:11:37;;;;;;;;;;;;;;;8.49;59.65;98285.41;4396533;32;21073;-91
2022/12/10 04:16:46;;;;;;;9.98;5.65;;;;;;;8.60;59.66;98277.16;4402787;32;20220;-91
2022/12/10 04:19:13;;;;;;;11.00;5.85;;;;;;;8.27;59.64;98289.88;4396302;32;20117;-91
2022/12/10 04:27:23;;;;;;;12.88;6.20;;;;;;;8.56;59.65;98294.63;4397838;32;20163;-92
2022/12/10 04:29:48;;;;;;;12.32;6.32;;;;;;;8.57;59.65;98285.91;4402569;32;20121;-92
2022/12/10 04:32:14;;;;;;;11.65;5.68;;;;;;;8.41;59.65;98294.47;4395950;32;20110;-92
2022/12/10 04:34:39;;;;;;;13.98;6.65;;;;;;;8.28;59.63;98292.44;4421882;32;20189;-91
2022/12/10 04:37:05;;;;;;;11.30;5.82;;;;;;;8.21;59.63;98292.75;4398621;32;20089;-92
2022/12/10 04:39:30;;;;;;;17.17;7.18;;;;;;;8.34;59.64;98298.28;4385646;32;20204;-91
2022/12/10 04:41:56;;;;;;;15.48;6.32;;;;;;;8.28;59.63;98287.25;4408414;32;20114;-91
2022/12/10 04:44:21;;;;;;;15.88;6.60;;;;;;;8.42;59.64;98283.19;4398362;32;20137;-91
2022/12/10 04:46:47;;;;;;;14.63;6.65;;;;;;;8.29;59.63;98288.94;4410638;32;20102;-91
2022/12/10 04:49:12;;;;;;;13.85;6.60;;;;;;;8.24;59.64;98282.25;4383316;32;20118;-91
2022/12/10 04:51:38;;;;;;;18.12;7.57;;;;;;;8.29;59.63;98285.50;4390187;32;20127;-91
2022/12/10 04:54:04;;;;;;;15.77;7.80;;;;;;;8.20;59.63;98271.19;4385691;32;20101;-91
2022/12/10 04:56:30;;;;;;;15.30;7.62;;;;;;;8.28;59.63;98265.63;4385056;32;20106;-90
2022/12/10 04:58:56;;;;;;;15.93;7.07;;;;;;;8.23;59.64;98263.25;4371153;32;20122;-90
2022/12/10 05:01:21;;;;;;;17.10;7.80;;;;;;;8.10;59.62;98266.50;4388495;32;20144;-91
2022/12/10 05:03:47;;;;;;;13.32;6.90;;;;;;;8.25;59.63;98251.06;4408292;32;20476;-91
2022/12/10 05:06:13;;;;;;;14.90;7.30;;;;;;;8.15;59.63;98260.19;4385325;32;20157;-90
2022/12/10 05:08:39;;;;;;;15.23;6.65;;;;;;;8.13;59.62;98274.12;4398288;32;20096;-91
2022/12/10 05:11:15;;;;;;;14.02;6.50;;;;;;;8.17;59.63;98286.03;4399715;32;20098;-91
2022/12/10 05:13:40;;;;;;;11.35;6.45;;;;;;;7.98;59.62;98301.56;4405343;32;20062;-91
2022/12/10 05:16:07;;;;;;;13.90;6.15;;;;;;;8.21;59.63;98297.94;4387498;32;20124;-90
2022/12/10 05:18:32;;;;;;;13.45;6.40;;;;;;;8.22;59.62;98297.03;4400531;32;20094;-90
2022/12/10 05:20:58;;;;;;;11.02;6.03;;;;;;;8.43;59.64;98308.22;4400047;32;20151;-90
2022/12/10 05:23:30;;;;;;;9.70;5.43;;;;;;;8.20;59.63;98309.22;4405355;32;20098;-89
2022/12/10 05:26:06;;;;;;;10.82;5.60;;;;;;;8.02;59.63;98313.47;4398396;32;20093;-91
2022/12/10 05:28:34;;;;;;;9.82;5.62;;;;;;;7.99;59.62;98311.03;4405832;32;20128;-90
2022/12/10 05:30:59;;;;;;;11.20;6.32;;;;;;;7.99;59.63;98313.62;4386863;32;20152;-90
2022/12/10 05:33:25;;;;;;;10.95;5.80;;;;;;;7.94;59.62;98311.22;4400272;32;20451;-90
2022/12/10 05:35:54;;;;;;;13.13;6.25;;;;;;;7.95;59.62;98302.56;4401765;32;20118;-90
2022/12/10 05:38:19;;;;;;;13.90;6.20;;;;;;;7.85;59.62;98316.00;4403168;32;20991;-90
2022/12/10 05:40:45;;;;;;;16.20;6.72;;;;;;;7.89;59.62;98314.94;4412902;32;20116;-91
2022/12/10 05:43:11;;;;;;;14.50;7.20;;;;;;;7.77;59.60;98323.25;4410882;32;20109;-90
2022/12/10 05:45:36;;;;;;;11.23;6.72;;;;;;;7.73;59.61;98329.47;4400105;32;20153;-90
2022/12/10 05:48:01;;;;;;;15.30;7.40;;;;;;;7.69;59.60;98321.00;4394804;32;20122;-90
2022/12/10 05:50:27;;;;;;;11.82;6.90;;;;;;;7.74;59.61;98328.56;4397650;32;20157;-91
2022/12/10 05:52:52;;;;;;;13.75;7.12;;;;;;;7.77;59.61;98334.44;4393301;32;20110;-91
2022/12/10 05:55:18;;;;;;;13.65;7.82;;;;;;;7.80;59.61;98338.63;4399757;32;20105;-90
2022/12/10 05:57:43;;;;;;;14.18;7.78;;;;;;;7.72;59.61;98320.00;4410364;32;20221;-91
2022/12/10 06:00:10;;;;;;;13.02;7.05;;;;;;;7.69;59.61;98314.06;4408731;32;20180;-90
2022/12/10 06:02:35;;;;;;;18.02;8.20;;;;;;;7.79;59.61;98317.06;4412626;32;20109;-90
2022/12/10 06:05:00;;;;;;;14.93;7.70;;;;;;;7.73;59.61;98330.31;4412375;32;20430;-90
2022/12/10 06:07:26;;;;;;;15.00;8.07;;;;;;;7.83;59.61;98341.13;4399705;32;20110;-91
2022/12/10 06:09:51;;;;;;;14.45;7.65;;;;;;;7.82;59.61;98339.44;4412513;32;20106;-91
2022/12/10 06:12:17;;;;;;;15.20;8.50;;;;;;;7.61;59.61;98342.03;4407703;32;20156;-90
2022/12/10 06:14:42;;;;;;;17.33;9.20;;;;;;;7.95;59.62;98335.41;4391376;32;20100;-89
2022/12/10 06:17:08;;;;;;;17.50;9.73;;;;;;;7.88;59.62;98346.94;4396270;32;20114;-91
2022/12/10 06:19:33;;;;;;;18.20;9.15;;;;;;;7.71;59.60;98347.66;4387406;32;20125;-90
2022/12/10 06:21:59;;;;;;;18.45;10.73;;;;;;;7.65;59.60;98350.53;4407113;32;20149;-89
2022/12/10 06:24:24;;;;;;;19.20;10.55;;;;;;;7.66;59.60;98347.03;4397247;32;20090;-90
2022/12/10 06:26:50;;;;;;;20.50;11.20;;;;;;;7.70;59.61;98351.16;4410373;32;20147;-90
2022/12/10 06:29:15;;;;;;;18.52;10.20;;;;;;;7.48;59.60;98358.97;4412618;32;20192;-93
2022/12/10 06:31:40;;;;;;;19.27;10.70;;;;;;;7.59;59.60;98356.81;4403669;32;20734;-90
2022/12/10 06:34:06;;;;;;;21.62;11.18;;;;;;;7.52;59.59;98352.78;4399992;32;20116;-90
2022/12/10 06:36:32;;;;;;;21.65;10.52;;;;;;;7.55;59.60;98362.16;4399671;32;20160;-90
2022/12/10 06:38:57;;;;;;;16.23;9.00;;;;;;;7.40;59.59;98358.47;4404280;32;20133;-90
2022/12/10 06:41:23;;;;;;;17.48;9.57;;;;;;;7.39;59.58;98357.63;4409556;32;20120;-91
2022/12/10 06:43:48;;;;;;;18.58;9.60;;;;;;;7.32;59.58;98358.78;4399328;32;20101;-89
2022/12/10 06:46:15;;;;;;;18.33;10.02;;;;;;;7.24;59.58;98368.59;4399818;32;20128;-90
2022/12/10 06:48:41;;;;;;;18.00;9.52;;;;;;;7.26;59.58;98374.56;4386101;32;20447;-90
2022/12/10 06:51:06;;;;;;;16.92;9.70;;;;;;;7.25;59.59;98385.81;4392512;32;20093;-90
2022/12/10 06:53:32;;;;;;;18.83;10.18;;;;;;;7.10;59.58;98383.84;4399306;32;20097;-89
2022/12/10 06:55:59;;;;;;;21.08;10.65;;;;;;;6.98;59.57;98384.31;4387096;32;20145;-91
2022/12/10 06:58:28;;;;;;;24.12;10.90;;;;;;;6.99;59.57;98384.25;4399133;32;20156;-91
2022/12/10 07:00:54;;;;;;;20.92;11.30;;;;;;;7.05;59.57;98380.59;4388835;32;20799;-91
2022/12/10 07:03:20;;;;;;;21.58;10.80;;;;;;;7.07;59.57;98369.28;4396619;32;20148;-90
2022/12/10 07:05:45;;;;;;;19.40;10.43;;;;;;;6.85;59.56;98368.44;4410577;32;20504;-90
2022/12/10 07:08:11;;;;;;;24.27;12.98;;;;;;;6.93;59.56;98368.16;4386728;32;20134;-91
2022/12/10 07:10:37;;;;;;;21.42;11.20;;;;;;;7.09;59.58;98367.47;4398920;32;20161;-91
2022/12/10 07:13:02;;;;;;;22.83;10.98;;;;;;;7.14;59.57;98376.81;4387115;32;20074;-91
2022/12/10 07:15:28;;;;;;;21.65;11.27;;;;;;;7.29;59.58;98369.25;4399029;32;20157;-91
2022/12/10 07:17:53;;;;;;;23.92;11.55;;;;;;;7.31;59.58;98364.84;4401729;32;20132;-91
2022/12/10 07:20:19;;;;;;;20.75;10.85;;;;;;;7.38;59.59;98365.47;4409606;32;20124;-91
2022/12/10 07:22:44;;;;;;;23.42;12.23;;;;;;;7.41;59.59;98362.75;4395934;32;20146;-91
2022/12/10 07:25:10;;;;;;;22.50;11.82;;;;;;;7.57;59.60;98357.75;4396418;32;20102;-91
2022/12/10 07:27:36;;;;;;;20.52;11.70;;;;;;;7.34;59.59;98348.38;4418635;32;20154;-91
2022/12/10 07:30:01;;;;;;;18.37;11.45;;;;;;;7.50;59.60;98339.06;4386713;32;20093;-91
2022/12/10 07:32:27;;;;;;;21.90;11.85;;;;;;;7.43;59.59;98327.28;4397332;32;20138;-92
2022/12/10 07:34:52;;;;;;;20.58;11.98;;;;;;;7.43;59.59;98326.44;4383972;32;20153;-90
2022/12/10 07:37:18;;;;;;;21.58;11.55;;;;;;;7.64;59.60;98336.72;4388015;32;20127;-91
2022/12/10 07:39:43;;;;;;;17.05;10.00;;;;;;;7.43;59.59;98345.41;4411999;32;20111;-91
2022/12/10 07:42:09;;;;;;;17.40;10.55;;;;;;;7.38;59.58;98347.34;4411720;32;20131;-91
2022/12/10 07:44:34;;;;;;;21.00;10.55;;;;;;;7.23;59.58;98350.56;4411608;32;20106;-91
2022/12/10 07:47:00;;;;;;;21.12;11.82;;;;;;;7.13;59.58;98362.19;4399186;32;20090;-92
2022/12/10 07:49:25;;;;;;;16.52;9.77;;;;;;;7.25;59.58;98374.62;4399462;32;20160;-91
2022/12/10 07:51:51;;;;;;;16.25;8.23;;;;;;;6.99;59.56;98380.84;4394929;32;20116;-91
2022/12/10 07:54:17;;;;;;;15.38;9.02;;;;;;;6.98;59.57;98382.59;4390366;32;20125;-91
2022/12/10 07:56:42;;;;;;;16.35;9.23;;;;;;;6.74;59.55;98380.94;4384548;32;20110;-90
2022/12/10 07:59:08;;;;;;;14.55;8.65;;;;;;;6.67;59.55;98380.34;4398934;32;20138;-90
2022/12/10 08:01:33;;;;;;;13.75;8.52;;;;;;;6.74;59.55;98384.38;4398798;32;20125;-87
2022/12/10 08:03:59;;;;;;;17.58;9.13;;;;;;;6.76;59.55;98385.16;4398388;32;20101;-90
2022/12/10 08:06:25;;;;;;;16.70;9.02;;;;;;;6.89;59.56;98382.09;4399033;32;20157;-90
2022/12/10 08:08:50;;;;;;;20.55;9.18;;;;;;;7.05;59.57;98376.25;4399706;32;20120;-90
2022/12/10 08:11:16;;;;;;;18.23;9.90;;;;;;;6.83;59.56;98377.16;4390131;32;20106;-90
2022/12/10 08:13:42;;;;;;;17.42;9.45;;;;;;;6.71;59.55;98375.91;4410730;32;20132;-89
2022/12/10 08:16:18;;;;;;;19.33;10.13;;;;;;;6.82;59.56;98372.88;4401070;32;20129;-89
2022/12/10 08:18:43;;;;;;;21.77;11.02;;;;;;;6.83;59.56;98372.81;4407558;32;20063;-90
2022/12/10 08:21:11;;;;;;;17.45;9.20;;;;;;;6.60;59.55;98363.34;4408448;32;20140;-89
2022/12/10 08:23:37;;;;;;;17.95;9.35;;;;;;;6.62;59.54;98364.13;4391729;32;20140;-88
2022/12/10 08:26:06;;;;;;;18.65;10.60;;;;;;;6.75;59.55;98372.28;4408450;32;20106;-89
2022/12/10 08:28:32;;;;;;;19.67;10.45;;;;;;;6.86;59.56;98353.75;4385325;32;20093;-90
2022/12/10 08:30:57;;;;;;;19.25;10.95;;;;;;;7.00;59.56;98360.06;4397279;32;20391;-90
2022/12/10 08:33:23;;;;;;;18.50;11.10;;;;;;;6.99;59.56;98355.81;4398904;32;20133;-90
2022/12/10 08:35:48;;;;;;;18.65;9.98;;;;;;;7.01;59.56;98361.75;4398098;32;20144;-91
2022/12/10 08:38:13;;;;;;;17.58;10.20;;;;;;;7.08;59.56;98367.53;4398031;32;20133;-90
2022/12/10 08:40:40;;;;;;;16.60;9.05;;;;;;;7.23;59.57;98361.75;4403536;32;20113;-91
2022/12/10 08:43:06;;;;;;;17.83;9.90;;;;;;;7.28;59.58;98366.72;4384311;32;20106;-90
2022/12/10 08:45:31;;;;;;;20.83;11.40;;;;;;;7.18;59.58;98374.03;4387797;32;20484;-92
2022/12/10 08:47:56;;;;;;;22.17;12.77;;;;;;;7.14;59.57;98379.41;4396836;32;20770;-90
2022/12/10 08:50:22;;;;;;;24.12;11.65;;;;;;;7.24;59.58;98378.94;4413337;32;20081;-95
2022/12/10 08:52:47;;;;;;;21.33;12.15;;;;;;;7.20;59.58;98379.16;4426212;32;20133;-95
2022/12/10 08:55:13;;;;;;;26.50;13.55;;;;;;;7.17;59.57;98389.62;4397488;32;20463;-96
2022/12/10 08:57:38;;;;;;;32.45;15.27;;;;;;;7.25;59.59;98391.00;4385582;32;20141;-96
2022/12/10 09:00:04;;;;;;;33.40;15.60;;;;;;;7.26;59.58;98384.91;4391493;32;20128;-95
2022/12/10 09:02:30;;;;;;;32.28;15.65;;;;;;;7.24;59.58;98402.25;4398128;32;20133;-96
2022/12/10 09:04:55;;;;;;;33.80;16.30;;;;;;;7.24;59.58;98406.56;4394341;32;20141;-95
2022/12/10 09:07:21;;;;;;;30.58;15.68;;;;;;;7.25;59.59;98405.69;4398215;32;20145;-93
2022/12/10 09:09:46;;;;;;;33.28;15.93;;;;;;;7.20;59.58;98402.44;4390498;32;20086;-93
2022/12/10 09:12:12;;;;;;;31.52;16.00;;;;;;;7.20;59.58;98410.19;4410061;32;20505;-92
2022/12/10 09:14:38;;;;;;;33.08;15.73;;;;;;;7.13;59.57;98409.59;4385343;32;20146;-94
2022/12/10 09:17:04;;;;;;;34.75;15.80;;;;;;;7.07;59.57;98400.31;4383532;32;20078;-93
2022/12/10 09:19:29;;;;;;;36.53;16.15;;;;;;;7.09;59.57;98406.28;4386350;32;20129;-94
2022/12/10 09:21:55;;;;;;;36.53;17.20;;;;;;;6.94;59.57;98399.13;4413122;32;20129;-93
2022/12/10 09:24:20;;;;;;;38.50;17.83;;;;;;;6.82;59.56;98394.41;4387627;32;20109;-94
2022/12/10 09:26:46;;;;;;;38.25;15.75;;;;;;;6.92;59.56;98389.75;4425527;32;20464;-93
2022/12/10 09:29:12;;;;;;;31.75;14.40;;;;;;;6.96;59.57;98399.91;4386681;32;20090;-93
2022/12/10 09:31:38;;;;;;;33.30;16.20;;;;;;;6.87;59.55;98399.44;4382427;32;20173;-94
2022/12/10 09:34:03;;;;;;;36.03;15.90;;;;;;;6.85;59.56;98401.22;4399481;32;20102;-95
2022/12/10 09:36:29;;;;;;;33.38;16.27;;;;;;;6.63;59.54;98398.63;4383280;32;20184;-94
2022/12/10 09:38:54;;;;;;;35.97;16.73;;;;;;;6.70;59.55;98389.72;4384954;32;20104;-94
2022/12/10 09:41:31;;;;;;;41.63;17.90;;;;;;;6.80;59.56;98388.47;4383341;32;20142;-94
2022/12/10 09:44:02;;;;;;;40.83;17.75;;;;;;;6.84;59.56;98374.50;4382692;32;20106;-93
2022/12/10 09:46:48;;;;;;;38.88;18.02;;;;;;;6.98;59.57;98361.03;4387036;32;20133;-94
2022/12/10 09:49:38;;;;;;;37.38;17.10;;;;;;;6.91;59.56;98363.03;4374287;32;20078;-95
2022/12/10 09:52:05;;;;;;;42.20;17.23;;;;;;;6.75;59.55;98352.44;4408101;32;20485;-95
2022/12/10 09:54:34;;;;;;;37.67;17.60;;;;;;;6.74;59.55;98345.59;4382697;32;20115;-95
2022/12/10 09:57:00;;;;;;;41.35;18.73;;;;;;;6.76;59.55;98328.25;4380288;32;20125;-95
2022/12/10 09:59:42;;;;;;;47.85;19.23;;;;;;;6.69;59.55;98332.00;4368683;32;20137;-94
2022/12/10 10:02:30;;;;;;;43.75;18.60;;;;;;;6.89;59.56;98333.81;4398138;32;20089;-95
2022/12/10 10:05:18;;;;;;;76.10;38.70;;;;;;;6.76;59.55;98330.00;4385873;32;20114;-94
2022/12/10 10:07:46;;;;;;;50.40;27.92;;;;;;;6.77;59.55;98324.78;4386783;32;20146;-94
2022/12/10 10:10:18;;;;;;;99.37;50.30;;;;;;;6.64;59.54;98330.50;4375420;32;20467;-94
2022/12/10 10:12:43;;;;;;;49.95;25.23;;;;;;;6.64;59.54;98326.16;4397887;32;20125;-95
2022/12/10 10:15:14;;;;;;;44.08;22.13;;;;;;;6.60;59.55;98316.81;4386845;32;20110;-96
2022/12/10 10:17:42;;;;;;;1311.45;508.33;;;;;;;6.49;59.54;98312.97;4397654;32;20789;-95
2022/12/10 10:20:08;;;;;;;482.35;192.50;;;;;;;6.57;59.54;98321.28;4370968;32;20165;-96
2022/12/10 10:22:33;;;;;;;400.38;151.95;;;;;;;6.69;59.55;98320.81;4382814;32;20106;-96
2022/12/10 10:25:02;;;;;;;214.85;110.20;;;;;;;6.67;59.55;98320.88;4365706;32;20182;-95
2022/12/10 10:27:28;;;;;;;85.93;47.03;;;;;;;6.76;59.55;98327.41;4400523;32;20105;-95
2022/12/10 10:29:55;;;;;;;55.80;31.42;;;;;;;6.83;59.56;98336.62;4398991;32;20057;-95
2022/12/10 10:32:22;;;;;;;38.95;18.33;;;;;;;6.93;59.56;98343.12;4399742;32;20213;-96
2022/12/10 10:34:56;;;;;;;42.75;21.73;;;;;;;6.95;59.57;98341.31;4381743;32;20093;-95
2022/12/10 10:37:28;;;;;;;33.47;16.83;;;;;;;7.11;59.58;98351.06;4406464;32;20081;-96
2022/12/10 10:39:54;;;;;;;33.13;18.05;;;;;;;7.05;59.57;98342.62;4402237;32;20102;-95
2022/12/10 10:42:37;;;;;;;31.30;14.43;;;;;;;7.06;59.57;98336.53;4401434;32;20094;-96
2022/12/10 10:45:04;;;;;;;35.15;15.13;;;;;;;6.97;59.57;98341.25;4401264;32;20096;-96
2022/12/10 10:47:33;;;;;;;29.25;14.55;;;;;;;7.06;59.57;98338.28;4393003;32;20086;-95
2022/12/10 10:49:59;;;;;;;34.17;15.30;;;;;;;7.06;59.57;98339.13;4414863;32;20061;-96
2022/12/10 10:52:30;;;;;;;30.65;14.68;;;;;;;7.22;59.58;98339.34;4413329;32;20058;-95
2022/12/10 10:54:56;;;;;;;30.98;15.20;;;;;;;7.38;59.59;98339.56;4384837;32;20799;-96
2022/12/10 10:57:48;;;;;;;31.83;15.35;;;;;;;7.20;59.58;98340.31;4392899;32;20101;-96
2022/12/10 11:00:22;;;;;;;34.05;14.87;;;;;;;7.25;59.59;98328.03;4426153;32;20112;-96
2022/12/10 11:02:48;;;;;;;28.10;12.65;;;;;;;7.43;59.59;98324.69;4405577;32;20114;-96
2022/12/10 11:05:27;;;;;;;33.90;13.75;;;;;;;7.42;59.59;98317.00;4394342;32;20435;-96
2022/12/10 11:08:04;;;;;;;34.43;12.87;;;;;;;7.31;59.58;98310.50;4388874;32;20045;-96
2022/12/10 11:10:29;;;;;;;30.80;13.35;;;;;;;7.36;59.59;98313.75;4389880;32;20094;-96
2022/12/10 11:13:06;;;;;;;37.08;17.42;;;;;;;7.41;59.59;98310.97;4396509;32;20094;-96
2022/12/10 11:15:34;;;;;;;34.58;15.95;;;;;;;7.42;59.59;98311.81;4381509;32;20105;-96
2022/12/10 11:18:00;;;;;;;27.52;12.40;;;;;;;7.36;59.59;98316.34;4406286;32;20122;-95
2022/12/10 11:20:33;;;;;;;26.45;12.77;;;;;;;7.45;59.59;98311.69;4395179;32;20116;-95
2022/12/10 11:23:01;;;;;;;100.22;51.05;;;;;;;7.40;59.59;98306.69;4412383;32;20156;-94
2022/12/10 11:25:30;;;;;;;76.97;38.25;;;;;;;7.31;59.58;98300.13;4412063;32;20513;-95
2022/12/10 11:28:00;;;;;;;51.37;27.90;;;;;;;7.25;59.59;98300.41;4397624;32;20090;-94
2022/12/10 11:30:25;;;;;;;36.88;18.75;;;;;;;7.34;59.59;98297.44;4393587;32;20081;-96
2022/12/10 11:33:06;;;;;;;35.42;18.55;;;;;;;7.13;59.57;98281.97;4396258;32;20442;-94
2022/12/10 11:35:58;;;;;;;40.70;22.58;;;;;;;7.19;59.58;98274.78;4411540;32;20117;-95
2022/12/10 11:38:28;;;;;;;32.80;15.80;;;;;;;7.43;59.59;98274.66;4399202;32;20097;-96
2022/12/10 11:41:22;;;;;;;31.40;14.75;;;;;;;7.32;59.58;98263.00;4384511;32;20086;-95